Strona główna
METAR-TAF:

METAR-TAF

Lotnisko :

Port lotniczy Koszyce

Koszyce, Słowacja

Szerokość geograficzna: 48-39-47N, Długość geograficzna: 021-14-28E, wysokość: 232 m

Aktualna obserwacja pogody

Raport powstał 34 minut temu, godzina 18:30 UTC
Wiatr 3 kt od wschód, zmienny między wschodnio-północny wschód i południowy zachód
Temperatura -3°C
Wilgotność 86%
Ciśnienie 1024 hPa
Widzialność 10 km lub więcej
Przerywane chmury na wysokości 3500 ft

METAR: LZKZ 171830Z 10003KT 070V220 9999 BKN035 M03/M05 Q1024

czas: 20:04 (19:04 UTC)

Prognoza

Raport powstał 2 godziny i 4 minut temu, godzina 17:00 UTC
Prognoza ważna od 17 godzina 18 UTC do 18 godzina 18 UTC
Wiatr 6 kt od północ
Widzialność 10 km lub więcej
Rozproszone chmury na wysokości 3000 ft
Przejściowo
od 17 godzina 18 UTC do 17 godzina 19 UTC
Wiatr 2 kt z kierunków zmiennych
Widzialność: 5000 m
zamglenie
Przejściowo
od 18 godzina 08 UTC do 18 godzina 15 UTC
Wiatr 12 kt od północ

TAF: LZKZ 171700Z 1718/1818 01006KT 9999 SCT030 TEMPO 1718/1719 VRB02KT 5000 BR TEMPO 1808/1815 01012KT

Obserwacja i prognoza pogody dla ponad 4000 lotnisk (raport METAR i TAF).

Dostępne stacje oznaczono żółtymi i czerwonymi punktami na mapie.

Najedź kursorem aby zobaczyć nazwę stacji.

Kliknij aby zobaczyć obserwacje i prognozy pogody.

Aby zmienić mapę: kliknij na zielony przycisk z czarnym krzyżykiem, aby powiększyć; na zielony przycisk z myślnikiem, aby pomniejszyć; na zielone strzałki, aby przejść do map sąsiednich.


METAR-TAF: